M I D A S
Marine Information and Data Acquisition System
Tripno 1697 of the Zeeleeuw from 2009-05-20 04:33:05 to 2009-05-20 14:30:48
Back to CruiseResearch ActivitiesStationsMapUnderway DataData graphs

EquipmentUnitsComment
TimeDGPSUTC
LatitudeDGPSDM.mWGS84
LongitudeDGPSDM.mWGS84
HeadingGyrodeg 
SOGDGPSknotsSpeed over ground
COGDGPSdegCourse over ground
DepthEcho soundermeters200 kHz
Missing or incorrect values are displayed as -999
Navigation data collected by the RV Zeeleeuw from 2009-05-20 04:02:50 to 2009-05-20 14:39:44
                                                                                    Next 1000 lines
Time Latitude Longitude Heading SOG COG Depth
2009-05-20 04:02:59 51°13.664 2°55.96 127 0.1 39 4.5
2009-05-20 04:03:04 51°13.664 2°55.96 127 0.1 25 4.5
2009-05-20 04:03:09 51°13.663 2°55.96 127 -999 227 4.5
2009-05-20 04:03:14 51°13.663 2°55.959 127 -999 216 4.5
2009-05-20 04:03:19 51°13.664 2°55.959 127 -999 37 4.4
2009-05-20 04:03:24 51°13.664 2°55.959 127 0.2 38 4.5
2009-05-20 04:03:29 51°13.664 2°55.959 126.9 -999 22 4.5
2009-05-20 04:03:34 51°13.664 2°55.959 126.9 -999 192 4.5
2009-05-20 04:03:38 51°13.664 2°55.959 126.9 -999 33 4.5
2009-05-20 04:03:43 51°13.664 2°55.96 126.9 0.1 53 4.5
2009-05-20 04:03:48 51°13.664 2°55.959 126.9 -999 65 4.5
2009-05-20 04:03:53 51°13.664 2°55.959 126.9 -999 43 4.5
2009-05-20 04:03:58 51°13.663 2°55.959 126.9 -999 264 4.5
2009-05-20 04:04:02 51°13.663 2°55.959 126.9 -999 72 4.5
2009-05-20 04:04:08 51°13.664 2°55.961 126.9 0.1 38 4.5
2009-05-20 04:04:13 51°13.664 2°55.961 126.9 -999 255 4.5
2009-05-20 04:04:18 51°13.664 2°55.961 126.9 -999 198 4.5
2009-05-20 04:04:22 51°13.664 2°55.961 126.9 -999 58 4.4
2009-05-20 04:04:28 51°13.664 2°55.961 126.9 -999 205 4.4
2009-05-20 04:04:33 51°13.664 2°55.961 126.9 -999 198 4.4
2009-05-20 04:04:38 51°13.664 2°55.961 126.9 0.1 38 4.5
2009-05-20 04:04:42 51°13.664 2°55.961 126.9 -999 35 4.5
2009-05-20 04:04:48 51°13.664 2°55.961 126.9 -999 219 4.5
2009-05-20 04:04:53 51°13.663 2°55.96 126.9 -999 215 4.6
2009-05-20 04:04:58 51°13.663 2°55.96 126.9 -999 205 4.5
2009-05-20 04:05:02 51°13.663 2°55.96 126.9 -999 193 4.5
2009-05-20 04:05:06 51°13.663 2°55.96 126.9 -999 173 4.6
2009-05-20 04:05:13 51°13.663 2°55.96 126.9 -999 26 4.6
2009-05-20 04:05:18 51°13.663 2°55.96 126.9 -999 55 4.5
2009-05-20 04:05:23 51°13.663 2°55.96 126.9 -999 118 4.6
2009-05-20 04:05:27 51°13.663 2°55.96 127 -999 40 4.5
2009-05-20 04:05:33 51°13.663 2°55.96 127 -999 63 4.5
2009-05-20 04:05:38 51°13.663 2°55.96 127 -999 34 4.6
2009-05-20 04:05:43 51°13.663 2°55.96 127 0.1 213 4.5
2009-05-20 04:05:47 51°13.663 2°55.96 127 -999 211 4.5
2009-05-20 04:05:53 51°13.663 2°55.96 127 -999 248 4.5
2009-05-20 04:05:58 51°13.663 2°55.96 127 -999 141 4.5
2009-05-20 04:06:02 51°13.663 2°55.96 126.9 -999 85 4.6
2009-05-20 04:06:07 51°13.663 2°55.96 126.9 0.1 38 4.5
2009-05-20 04:06:13 51°13.663 2°55.96 126.9 -999 346 4.6
2009-05-20 04:06:18 51°13.663 2°55.96 126.9 -999 257 4.6
2009-05-20 04:06:22 51°13.663 2°55.96 126.9 -999 137 4.5
2009-05-20 04:06:28 51°13.663 2°55.96 126.9 -999 265 4.5
2009-05-20 04:06:33 51°13.663 2°55.96 126.9 -999 33 4.5
2009-05-20 04:06:38 51°13.663 2°55.96 126.9 -999 220 4.6
2009-05-20 04:06:42 51°13.663 2°55.96 126.9 -999 188 4.6
2009-05-20 04:06:48 51°13.663 2°55.96 126.9 -999 41 4.6
2009-05-20 04:06:53 51°13.663 2°55.96 126.9 -999 52 4.6
2009-05-20 04:06:58 51°13.663 2°55.96 126.9 -999 33 4.5
2009-05-20 04:07:02 51°13.663 2°55.96 126.9 -999 20 4.6
2009-05-20 04:07:07 51°13.663 2°55.96 126.9 -999 226 4.6
2009-05-20 04:07:13 51°13.663 2°55.96 126.9 -999 54 4.6
2009-05-20 04:07:18 51°13.663 2°55.96 126.9 -999 40 4.6
2009-05-20 04:07:22 51°13.663 2°55.96 126.9 -999 54 4.6
2009-05-20 04:07:26 51°13.663 2°55.96 126.9 -999 213 4.6
2009-05-20 04:07:33 51°13.663 2°55.96 126.9 -999 192 4.6
2009-05-20 04:07:38 51°13.663 2°55.96 126.9 -999 64 4.6
2009-05-20 04:07:43 51°13.663 2°55.96 126.9 -999 80 4.5
2009-05-20 04:07:48 51°13.663 2°55.959 126.9 0.1 207 4.6
2009-05-20 04:07:53 51°13.663 2°55.959 126.9 -999 184 4.5
2009-05-20 04:07:58 51°13.663 2°55.959 126.9 -999 212 4.6
2009-05-20 04:08:03 51°13.663 2°55.959 126.9 -999 207 4.6
2009-05-20 04:08:07 51°13.662 2°55.959 126.9 0.1 216 4.6
2009-05-20 04:08:13 51°13.662 2°55.959 126.9 -999 209 4.6
2009-05-20 04:08:18 51°13.662 2°55.959 126.9 -999 91 4.5
2009-05-20 04:08:23 51°13.662 2°55.959 126.9 -999 223 4.6
2009-05-20 04:08:27 51°13.662 2°55.959 126.9 0.1 220 4.6
2009-05-20 04:08:33 51°13.662 2°55.959 126.9 0.1 358 4.6
2009-05-20 04:08:38 51°13.662 2°55.959 126.9 -999 353 4.6
2009-05-20 04:08:42 51°13.662 2°55.96 126.9 0.1 48 4.6
2009-05-20 04:08:47 51°13.663 2°55.96 126.9 0.1 19 4.6
2009-05-20 04:08:53 51°13.662 2°55.96 126.9 0.1 35 4.6
2009-05-20 04:08:58 51°13.662 2°55.96 126.9 -999 214 4.6
2009-05-20 04:09:02 51°13.662 2°55.96 126.9 -999 24 4.6
2009-05-20 04:09:07 51°13.662 2°55.959 126.9 -999 222 4.6
2009-05-20 04:09:13 51°13.662 2°55.959 126.9 -999 143 4.6
2009-05-20 04:09:18 51°13.662 2°55.959 126.9 -999 42 4.6
2009-05-20 04:09:22 51°13.661 2°55.959 126.9 -999 319 4.6
2009-05-20 04:09:27 51°13.661 2°55.958 126.9 -999 222 4.6
2009-05-20 04:09:33 51°13.661 2°55.958 126.9 -999 207 4.6
2009-05-20 04:09:38 51°13.661 2°55.958 126.9 -999 209 4.6
2009-05-20 04:09:42 51°13.661 2°55.958 127 -999 187 4.6
2009-05-20 04:09:47 51°13.661 2°55.959 127 -999 112 4.6
2009-05-20 04:09:53 51°13.661 2°55.959 127 -999 49 4.6
2009-05-20 04:09:58 51°13.661 2°55.959 127 -999 198 4.6
2009-05-20 04:10:02 51°13.661 2°55.959 127 0.1 39 4.6
2009-05-20 04:10:07 51°13.662 2°55.959 127 0.1 34 4.6
2009-05-20 04:10:13 51°13.661 2°55.959 127 0.1 29 4.6
2009-05-20 04:10:18 51°13.661 2°55.959 127 -999 29 4.6
2009-05-20 04:10:22 51°13.661 2°55.959 127 -999 62 4.6
2009-05-20 04:10:28 51°13.662 2°55.959 127 -999 52 4.6
2009-05-20 04:10:32 51°13.662 2°55.959 127 -999 61 4.6
2009-05-20 04:10:38 51°13.662 2°55.959 127 -999 169 4.6
2009-05-20 04:10:43 51°13.662 2°55.959 127.1 -999 170 4.6
2009-05-20 04:10:48 51°13.662 2°55.96 127.1 -999 158 4.6
2009-05-20 04:10:53 51°13.662 2°55.96 127.3 -999 171 4.6
2009-05-20 04:10:58 51°13.662 2°55.96 127.5 -999 331 4.6
2009-05-20 04:11:02 51°13.662 2°55.96 127.6 -999 43 4.6
2009-05-20 04:11:08 51°13.662 2°55.961 127.6 -999 335 4.5
2009-05-20 04:11:13 51°13.662 2°55.961 127.6 -999 260 4.6
2009-05-20 04:11:18 51°13.663 2°55.961 127.4 -999 325 4.6
2009-05-20 04:11:22 51°13.663 2°55.961 127.2 -999 269 4.6
2009-05-20 04:11:27 51°13.663 2°55.961 127.1 -999 10 4.6
2009-05-20 04:11:33 51°13.663 2°55.96 127 -999 190 4.6
2009-05-20 04:11:38 51°13.663 2°55.96 127 -999 196 4.6
2009-05-20 04:11:42 51°13.663 2°55.96 127 -999 144 4.6
2009-05-20 04:11:47 51°13.664 2°55.96 127 -999 123 4.6
2009-05-20 04:11:53 51°13.664 2°55.959 127 -999 92 4.6
2009-05-20 04:11:58 51°13.664 2°55.959 127 -999 43 4.6
2009-05-20 04:12:03 51°13.663 2°55.959 127.1 -999 87 4.6
2009-05-20 04:12:07 51°13.663 2°55.959 127.2 -999 46 4.6
2009-05-20 04:12:12 51°13.663 2°55.959 127.2 -999 9 4.6
2009-05-20 04:12:18 51°13.662 2°55.959 127.2 -999 238 4.6
2009-05-20 04:12:23 51°13.663 2°55.959 127.2 -999 17 4.6
2009-05-20 04:12:28 51°13.663 2°55.959 127.2 -999 66 4.6
2009-05-20 04:12:33 51°13.663 2°55.959 127.2 -999 3 4.6
2009-05-20 04:12:37 51°13.663 2°55.959 127.2 0.1 27 4.6
2009-05-20 04:12:43 51°13.663 2°55.959 127.2 0.1 28 4.6
2009-05-20 04:12:47 51°13.663 2°55.959 127.2 0.1 35 4.6
2009-05-20 04:12:53 51°13.663 2°55.959 127.2 0.1 205 4.6
2009-05-20 04:12:58 51°13.662 2°55.959 127.2 0.1 153 4.6
2009-05-20 04:13:03 51°13.662 2°55.959 127.3 0.1 161 4.6
2009-05-20 04:13:07 51°13.662 2°55.959 127.8 -999 107 4.6
2009-05-20 04:13:13 51°13.662 2°55.959 128.3 -999 63 4.6
2009-05-20 04:13:18 51°13.662 2°55.959 128.6 -999 330 4.7
2009-05-20 04:13:22 51°13.663 2°55.959 128.6 -999 252 4.6
2009-05-20 04:13:28 51°13.663 2°55.959 128.6 -999 229 4.7
2009-05-20 04:13:33 51°13.663 2°55.959 128.6 -999 203 4.6
2009-05-20 04:13:38 51°13.663 2°55.959 128.6 -999 98 4.6
2009-05-20 04:13:42 51°13.663 2°55.959 128.7 0.1 55 4.6
2009-05-20 04:13:47 51°13.663 2°55.959 128.6 -999 338 4.6
2009-05-20 04:13:53 51°13.663 2°55.959 128.6 0.1 42 4.6
2009-05-20 04:13:58 51°13.663 2°55.959 128.6 -999 72 4.6
2009-05-20 04:14:02 51°13.663 2°55.959 128.6 -999 353 4.6
2009-05-20 04:14:07 51°13.663 2°55.959 128.6 -999 65 4.6
2009-05-20 04:14:13 51°13.663 2°55.959 128.6 -999 41 4.6
2009-05-20 04:14:18 51°13.663 2°55.959 128.6 0.1 212 4.6
2009-05-20 04:14:22 51°13.663 2°55.959 128.6 -999 198 4.6
2009-05-20 04:14:27 51°13.663 2°55.959 128.6 -999 56 4.6
2009-05-20 04:14:33 51°13.664 2°55.959 128.6 -999 25 4.6
2009-05-20 04:14:38 51°13.664 2°55.959 128.6 0.1 260 4.6
2009-05-20 04:14:42 51°13.663 2°55.959 128.6 0.1 238 4.6
2009-05-20 04:14:48 51°13.663 2°55.959 128.8 -999 272 4.6
2009-05-20 04:14:53 51°13.663 2°55.959 129 0.1 246 4.6
2009-05-20 04:14:59 51°13.663 2°55.959 129.3 0.1 244 4.7
2009-05-20 04:15:03 51°13.663 2°55.958 129.4 0.1 240 4.6
2009-05-20 04:15:08 51°13.663 2°55.958 129.6 0.1 229 4.6
2009-05-20 04:15:13 51°13.663 2°55.958 129.9 -999 214 4.7
2009-05-20 04:15:18 51°13.663 2°55.959 129.9 -999 127 -999
2009-05-20 04:15:23 51°13.663 2°55.959 129.7 0.1 143 4.6
2009-05-20 04:15:28 51°13.663 2°55.959 129.2 0.1 113 4.7
2009-05-20 04:15:33 51°13.663 2°55.959 128.6 0.1 85 -999
2009-05-20 04:15:39 51°13.663 2°55.959 127.7 0.1 103 -999
2009-05-20 04:15:44 51°13.663 2°55.959 126.6 0.1 99 4.7
2009-05-20 04:15:49 51°13.663 2°55.959 126 -999 118 4.7
2009-05-20 04:15:55 51°13.663 2°55.959 125.3 0.1 49 4.7
2009-05-20 04:15:59 51°13.663 2°55.959 124.5 -999 154 4.7
2009-05-20 04:16:05 51°13.663 2°55.959 123.9 -999 123 -999
2009-05-20 04:16:10 51°13.663 2°55.959 123.5 -999 178 -999
2009-05-20 04:16:15 51°13.663 2°55.96 123.2 -999 168 4.7
2009-05-20 04:16:21 51°13.663 2°55.96 122.7 -999 185 -999
2009-05-20 04:16:26 51°13.662 2°55.959 122.2 -999 193 -999
2009-05-20 04:16:31 51°13.662 2°55.959 121.8 -999 184 4.7
2009-05-20 04:16:36 51°13.662 2°55.959 121.3 -999 187 -999
2009-05-20 04:16:41 51°13.662 2°55.96 120.9 -999 146 4.8
2009-05-20 04:16:46 51°13.663 2°55.96 120.4 0.1 63 4.7
2009-05-20 04:16:51 51°13.663 2°55.96 119.9 -999 77 4.8
2009-05-20 04:16:55 51°13.663 2°55.96 119.5 -999 110 4.7
2009-05-20 04:17:00 51°13.662 2°55.959 118.9 -999 161 4.7
2009-05-20 04:17:05 51°13.662 2°55.959 118.4 -999 147 4.7
2009-05-20 04:17:10 51°13.662 2°55.959 117.8 -999 155 -999
2009-05-20 04:17:15 51°13.662 2°55.96 117.1 -999 139 4.8
2009-05-20 04:17:20 51°13.662 2°55.959 116.8 0.1 196 -999
2009-05-20 04:17:26 51°13.662 2°55.959 116.1 0.1 191 4.8
2009-05-20 04:17:31 51°13.662 2°55.959 115.5 0.1 195 4.8
2009-05-20 04:17:36 51°13.662 2°55.959 114.8 0.1 199 -999
2009-05-20 04:17:41 51°13.662 2°55.959 114.3 -999 205 4.8
2009-05-20 04:17:46 51°13.662 2°55.959 113.7 -999 177 -999
2009-05-20 04:17:51 51°13.662 2°55.959 113.3 -999 288 -999
2009-05-20 04:17:56 51°13.662 2°55.959 112.6 0.1 286 -999
2009-05-20 04:18:01 51°13.662 2°55.958 112.2 0.2 290 4.8
2009-05-20 04:18:06 51°13.662 2°55.957 112.1 0.8 303 -999
2009-05-20 04:18:11 51°13.663 2°55.955 112.1 1.1 292 4.7
2009-05-20 04:18:16 51°13.663 2°55.951 112.2 1.5 293 4.7
2009-05-20 04:18:21 51°13.665 2°55.947 112.4 2 295 4.7
2009-05-20 04:18:26 51°13.666 2°55.943 112.5 2.3 294 4.9
2009-05-20 04:18:31 51°13.668 2°55.938 112.6 2.6 296 -999
2009-05-20 04:18:36 51°13.67 2°55.932 112.5 2.8 295 -999
2009-05-20 04:18:41 51°13.671 2°55.926 112.5 3 296 -999
2009-05-20 04:18:47 51°13.674 2°55.919 112.5 3.2 296 -999
2009-05-20 04:18:51 51°13.675 2°55.913 112.3 3.3 296 -999
2009-05-20 04:18:56 51°13.677 2°55.906 111.8 3.4 293 -999
2009-05-20 04:19:01 51°13.679 2°55.899 111 3.4 293 -999
2009-05-20 04:19:06 51°13.68 2°55.892 109.8 3.4 290 -999
2009-05-20 04:19:11 51°13.682 2°55.885 108.7 3.4 290 -999
2009-05-20 04:19:16 51°13.683 2°55.878 107.7 3.3 289 -999
2009-05-20 04:19:21 51°13.685 2°55.872 107.2 3.3 292 -999
2009-05-20 04:19:27 51°13.687 2°55.863 106.8 3.3 288 -999
2009-05-20 04:19:31 51°13.688 2°55.858 106.2 3.3 290 -999
2009-05-20 04:19:36 51°13.689 2°55.851 105.2 3.3 288 -999
2009-05-20 04:19:41 51°13.691 2°55.844 103.9 3.3 286 -999
2009-05-20 04:19:47 51°13.692 2°55.835 102.4 3.3 285 -999
2009-05-20 04:19:51 51°13.693 2°55.83 101 3.2 285 -999
2009-05-20 04:19:56 51°13.694 2°55.823 99.4 3.2 283 -999
2009-05-20 04:20:01 51°13.695 2°55.816 97.8 3.2 281 -999
2009-05-20 04:20:07 51°13.696 2°55.807 96.3 3.2 280 -999
2009-05-20 04:20:11 51°13.696 2°55.802 94.4 3.1 280 -999
2009-05-20 04:20:16 51°13.697 2°55.796 93.3 3 280 -999
2009-05-20 04:20:21 51°13.697 2°55.789 91.9 2.9 278 9.8
2009-05-20 04:20:26 51°13.698 2°55.783 90.4 2.8 278 -999
2009-05-20 04:20:31 51°13.698 2°55.777 89.1 2.8 277 10.6
2009-05-20 04:20:36 51°13.698 2°55.771 87.6 2.6 275 -999
2009-05-20 04:20:41 51°13.699 2°55.765 86.4 2.5 275 11.2
2009-05-20 04:20:46 51°13.699 2°55.76 85 2.2 276 4.5
2009-05-20 04:20:51 51°13.7 2°55.757 83.7 1.4 282 12
2009-05-20 04:20:56 51°13.7 2°55.756 82.1 0.7 298 12
2009-05-20 04:21:01 51°13.701 2°55.755 78 0.5 331 12.1
2009-05-20 04:21:06 51°13.702 2°55.755 71.3 0.5 357 12
2009-05-20 04:21:10 51°13.703 2°55.755 65.1 0.7 9 12
2009-05-20 04:21:15 51°13.704 2°55.756 59.3 0.9 14 12.1
2009-05-20 04:21:20 51°13.705 2°55.757 53.4 1 21 12.2
2009-05-20 04:21:25 51°13.707 2°55.757 48 1.1 14 12.5
2009-05-20 04:21:30 51°13.708 2°55.758 43.3 1.1 16 12.4
2009-05-20 04:21:35 51°13.71 2°55.758 37.8 1.1 10 12.5
2009-05-20 04:21:39 51°13.711 2°55.758 32.8 0.9 7 12.5
2009-05-20 04:21:44 51°13.711 2°55.758 29.7 0.6 347 12.6
2009-05-20 04:21:49 51°13.712 2°55.757 27 0.4 293 12.4
2009-05-20 04:21:54 51°13.711 2°55.756 22.7 0.5 246 12.3
2009-05-20 04:21:59 51°13.711 2°55.755 20 0.7 225 12.3
2009-05-20 04:22:04 51°13.71 2°55.754 16.3 0.8 220 12.3
2009-05-20 04:22:08 51°13.71 2°55.753 14.2 0.6 219 12.3
2009-05-20 04:22:13 51°13.709 2°55.752 11.4 0.7 222 12.3
2009-05-20 04:22:18 51°13.708 2°55.751 9.9 0.5 231 12.4
2009-05-20 04:22:23 51°13.708 2°55.751 8 0.4 272 12.3
2009-05-20 04:22:28 51°13.709 2°55.75 5.9 0.5 312 12.4
2009-05-20 04:22:33 51°13.71 2°55.749 2.8 0.8 333 12.1
2009-05-20 04:22:37 51°13.711 2°55.748 358.2 1.1 339 11.8
2009-05-20 04:22:42 51°13.713 2°55.746 353.9 1.3 335 11.7
2009-05-20 04:22:47 51°13.714 2°55.745 348.5 1.4 335 11.4
2009-05-20 04:22:52 51°13.716 2°55.743 342.5 1.6 332 11.2
2009-05-20 04:22:58 51°13.718 2°55.741 338 1.8 332 11.2
2009-05-20 04:23:03 51°13.72 2°55.738 334 1.9 330 11.2
2009-05-20 04:23:07 51°13.722 2°55.736 331.3 2 326 11.2
2009-05-20 04:23:12 51°13.725 2°55.734 327.6 2.1 324 11.1
2009-05-20 04:23:18 51°13.728 2°55.731 325.8 2.2 325 11.3
2009-05-20 04:23:23 51°13.73 2°55.728 324 2.3 323 11.2
2009-05-20 04:23:27 51°13.732 2°55.725 322.7 2.3 323 11
2009-05-20 04:23:32 51°13.735 2°55.722 322.5 2.4 322 10.8
2009-05-20 04:23:38 51°13.738 2°55.718 322.9 2.5 322 10.8
2009-05-20 04:23:43 51°13.741 2°55.714 323.2 2.6 322 10.6
2009-05-20 04:23:47 51°13.744 2°55.712 323.6 2.6 322 10.4
2009-05-20 04:23:52 51°13.747 2°55.708 323.8 2.7 322 10.3
2009-05-20 04:23:57 51°13.75 2°55.704 323.9 2.8 322 9.8
2009-05-20 04:24:03 51°13.754 2°55.7 324 2.9 321 9.5
2009-05-20 04:24:07 51°13.756 2°55.697 324 2.9 321 9.6
2009-05-20 04:24:11 51°13.759 2°55.693 323.9 2.9 321 9.6
2009-05-20 04:24:17 51°13.763 2°55.689 323.9 3 323 9.5
2009-05-20 04:24:23 51°13.767 2°55.684 324.1 3.1 322 9.5
2009-05-20 04:24:27 51°13.769 2°55.68 324.6 3.1 322 9.6
2009-05-20 04:24:31 51°13.772 2°55.677 325.3 3.1 324 9.6
2009-05-20 04:24:37 51°13.776 2°55.672 325.9 3.1 324 9.6
2009-05-20 04:24:43 51°13.78 2°55.667 326.6 3.2 326 9.7
2009-05-20 04:24:47 51°13.783 2°55.664 327.6 3.2 327 9.6
2009-05-20 04:24:51 51°13.786 2°55.661 329.6 3.2 328 9.7
2009-05-20 04:24:57 51°13.791 2°55.656 331.3 3.2 330 9.7
2009-05-20 04:25:03 51°13.796 2°55.653 333.7 3.2 334 9.7
2009-05-20 04:25:07 51°13.799 2°55.65 336.1 3.2 336 9.7
2009-05-20 04:25:12 51°13.803 2°55.648 339.1 3.2 338 9.7
2009-05-20 04:25:17 51°13.807 2°55.645 341.1 3.2 340 9.7
2009-05-20 04:25:23 51°13.812 2°55.643 343.5 3.2 342 9.6
2009-05-20 04:25:27 51°13.815 2°55.641 345.7 3.1 343 9.6
2009-05-20 04:25:31 51°13.819 2°55.64 348.1 3.1 346 9.6
2009-05-20 04:25:37 51°13.824 2°55.638 349.6 3 348 9.6
2009-05-20 04:25:43 51°13.829 2°55.637 351.4 3 348 9.4
2009-05-20 04:25:47 51°13.832 2°55.636 352.5 2.9 348 9.3
2009-05-20 04:25:53 51°13.837 2°55.635 354 2.8 349 9.3
2009-05-20 04:25:57 51°13.84 2°55.635 355 2.8 351 9.1
2009-05-20 04:26:03 51°13.845 2°55.634 356.3 2.7 353 9.4
2009-05-20 04:26:07 51°13.848 2°55.633 357.2 2.7 354 9.3
2009-05-20 04:26:11 51°13.851 2°55.633 358.5 2.7 354 9.2
2009-05-20 04:26:17 51°13.855 2°55.632 0.1 2.6 355 9.1
2009-05-20 04:26:23 51°13.859 2°55.632 1 2.6 357 9.1
2009-05-20 04:26:27 51°13.862 2°55.631 2.3 2.5 357 9.1
2009-05-20 04:26:32 51°13.866 2°55.631 3.7 2.5 357 9.1
2009-05-20 04:26:37 51°13.869 2°55.631 5 2.4 358 9.1
2009-05-20 04:26:43 51°13.873 2°55.631 6.1 2.4 2 9.4
2009-05-20 04:26:47 51°13.876 2°55.632 7.2 2.4 2 8.8
2009-05-20 04:26:51 51°13.878 2°55.632 8.4 2.3 3 8.8
2009-05-20 04:26:57 51°13.882 2°55.632 9.2 2.3 3 9.4
2009-05-20 04:27:03 51°13.886 2°55.632 10.2 2.3 4 9.5
2009-05-20 04:27:07 51°13.888 2°55.633 11.3 2.2 7 9.5
2009-05-20 04:27:11 51°13.891 2°55.633 12.5 2.2 7 9.4
2009-05-20 04:27:17 51°13.895 2°55.634 13.4 2.2 8 9.5
2009-05-20 04:27:23 51°13.898 2°55.635 14.3 2.1 8 9.6
2009-05-20 04:27:27 51°13.901 2°55.636 14.8 2.2 9 9.5
2009-05-20 04:27:32 51°13.903 2°55.636 15.1 2.2 9 9.6
2009-05-20 04:27:37 51°13.906 2°55.637 14.9 2.2 7 9.7
2009-05-20 04:27:43 51°13.91 2°55.637 14.1 2.2 7 9.7
2009-05-20 04:27:47 51°13.913 2°55.638 13 2.2 6 9.6
2009-05-20 04:27:53 51°13.916 2°55.638 11.1 2.2 6 9.6
2009-05-20 04:27:57 51°13.918 2°55.639 9.9 2.2 5 9.5
2009-05-20 04:28:03 51°13.922 2°55.639 8.2 2.1 3 9.2
2009-05-20 04:28:07 51°13.924 2°55.639 6.7 2.1 1 9.3
2009-05-20 04:28:11 51°13.927 2°55.639 5.2 2.1 1 9.2
2009-05-20 04:28:17 51°13.93 2°55.639 3.7 2 359 9.3
2009-05-20 04:28:23 51°13.933 2°55.639 2.3 2 357 9.6
2009-05-20 04:28:27 51°13.935 2°55.639 1.2 2 356 9.6
2009-05-20 04:28:32 51°13.938 2°55.639 -999 2 358 9.6
2009-05-20 04:28:37 51°13.941 2°55.639 358.6 2 356 9.9
2009-05-20 04:28:43 51°13.944 2°55.638 357.2 1.9 355 9.9
2009-05-20 04:28:47 51°13.946 2°55.638 356.1 1.9 354 9.8
2009-05-20 04:28:51 51°13.949 2°55.637 355 1.9 353 10
2009-05-20 04:28:57 51°13.952 2°55.636 353.7 1.9 351 10
2009-05-20 04:29:03 51°13.955 2°55.636 352.6 1.8 351 10
2009-05-20 04:29:07 51°13.956 2°55.635 351.6 1.6 352 10
2009-05-20 04:29:11 51°13.958 2°55.635 350.7 1.1 351 10
2009-05-20 04:29:17 51°13.959 2°55.634 349.7 0.7 352 10
2009-05-20 04:29:23 51°13.96 2°55.634 348.4 0.6 4 10.1
2009-05-20 04:29:27 51°13.961 2°55.635 347.1 0.3 2 10.1
2009-05-20 04:29:31 51°13.961 2°55.634 346.3 0.2 33 10.1
2009-05-20 04:29:37 51°13.961 2°55.634 345.7 0.1 90 10.1
2009-05-20 04:29:43 51°13.96 2°55.635 345.6 0.3 144 10.1
2009-05-20 04:29:47 51°13.96 2°55.635 345.2 0.5 154 10.1
2009-05-20 04:29:51 51°13.959 2°55.635 345.1 0.6 156 10
2009-05-20 04:29:57 51°13.958 2°55.636 344.8 0.7 157 10
2009-05-20 04:30:03 51°13.957 2°55.637 344.8 0.6 153 10.1
2009-05-20 04:30:07 51°13.957 2°55.637 344.8 0.5 162 10
2009-05-20 04:30:13 51°13.956 2°55.637 344.8 0.5 158 4.6
2009-05-20 04:30:18 51°13.955 2°55.638 344.9 0.3 159 4.6
2009-05-20 04:30:23 51°13.955 2°55.638 345 0.2 154 4.4
2009-05-20 04:30:28 51°13.955 2°55.638 345 0.1 139 4.6
2009-05-20 04:30:33 51°13.955 2°55.637 344.8 0.1 340 5.1
2009-05-20 04:30:38 51°13.956 2°55.637 344.3 0.5 341 4.5
2009-05-20 04:30:43 51°13.957 2°55.637 343.4 0.9 341 4.9
2009-05-20 04:30:47 51°13.958 2°55.636 342.5 1.2 338 4.5
2009-05-20 04:30:52 51°13.96 2°55.634 340.9 1.6 337 10.1
2009-05-20 04:30:57 51°13.962 2°55.633 339 2.1 335 10.1
2009-05-20 04:31:03 51°13.966 2°55.63 336.7 2.7 333 10.1
2009-05-20 04:31:07 51°13.97 2°55.627 333.7 3.3 330 10.2
2009-05-20 04:31:11 51°13.973 2°55.623 330.2 3.9 327 10.4
2009-05-20 04:31:17 51°13.979 2°55.617 327.4 4.6 326 10.4
2009-05-20 04:31:23 51°13.986 2°55.609 325.2 5.2 324 10.4
2009-05-20 04:31:27 51°13.991 2°55.603 323.8 5.7 323 10.3
2009-05-20 04:31:31 51°13.996 2°55.596 322.8 6.1 322 10
2009-05-20 04:31:37 51°14.004 2°55.586 322 6.5 321 9.9
2009-05-20 04:31:43 51°14.013 2°55.574 321.3 6.9 320 9.8
2009-05-20 04:31:47 51°14.019 2°55.566 320.3 7.1 319 9.8
2009-05-20 04:31:51 51°14.025 2°55.558 319.8 7.4 319 10.1
2009-05-20 04:31:57 51°14.035 2°55.544 319.6 7.6 318 9.7
2009-05-20 04:32:03 51°14.045 2°55.531 320.3 7.8 319 9.1
2009-05-20 04:32:07 51°14.052 2°55.522 321 8.1 319 9.5
2009-05-20 04:32:12 51°14.06 2°55.51 321.4 8.3 320 9.6
2009-05-20 04:32:17 51°14.069 2°55.498 321.6 8.5 320 9.7
2009-05-20 04:32:23 51°14.08 2°55.483 322 8.6 321 9.9
2009-05-20 04:32:27 51°14.088 2°55.474 323.2 8.7 323 9.8
2009-05-20 04:32:31 51°14.096 2°55.465 324.5 8.7 323 9.9
2009-05-20 04:32:37 51°14.107 2°55.45 324.1 8.8 322 9.8
2009-05-20 04:32:43 51°14.119 2°55.436 323.7 8.8 322 9.9
2009-05-20 04:32:47 51°14.127 2°55.427 325.2 8.8 325 9.9
2009-05-20 04:32:51 51°14.135 2°55.418 327.1 8.8 325 9.8
2009-05-20 04:32:57 51°14.146 2°55.404 326.8 8.8 323 9.8
2009-05-20 04:33:03 51°14.158 2°55.39 325.9 8.8 323 9.7
2009-05-20 04:33:07 51°14.166 2°55.381 325.9 8.8 323 9.7
2009-05-20 04:33:12 51°14.176 2°55.369 326 8.8 323 9.7
2009-05-20 04:33:17 51°14.185 2°55.357 325.2 8.8 322 9.7
2009-05-20 04:33:23 51°14.197 2°55.343 323.8 8.8 321 9.7
2009-05-20 04:33:27 51°14.204 2°55.332 322.5 8.8 320 9.7
2009-05-20 04:33:31 51°14.212 2°55.323 322.3 8.8 320 9.7
2009-05-20 04:33:37 51°14.223 2°55.307 321.7 8.8 318 9.7
2009-05-20 04:33:43 51°14.234 2°55.291 320.9 8.9 318 9.7
2009-05-20 04:33:47 51°14.241 2°55.281 320.1 8.9 317 9.7
2009-05-20 04:33:51 51°14.248 2°55.269 318.4 9 315 9.7
2009-05-20 04:33:57 51°14.259 2°55.252 317.4 9.1 315 9.7
2009-05-20 04:34:03 51°14.269 2°55.235 316.2 9.2 313 9.6
2009-05-20 04:34:07 51°14.277 2°55.223 315.4 9.4 313 9.7
2009-05-20 04:34:12 51°14.285 2°55.207 315.1 9.4 313 9.6
2009-05-20 04:34:17 51°14.294 2°55.191 314.1 9.6 310 9.7
2009-05-20 04:34:23 51°14.305 2°55.172 313.3 9.7 311 9.7
2009-05-20 04:34:27 51°14.312 2°55.159 312.6 9.8 309 9.6
2009-05-20 04:34:33 51°14.322 2°55.138 311 9.9 308 9.8
2009-05-20 04:34:37 51°14.329 2°55.124 309.6 10.1 306 9.7
2009-05-20 04:34:43 51°14.339 2°55.102 308.8 10.2 306 9.7
2009-05-20 04:34:47 51°14.345 2°55.086 306.4 10.3 302 9.7
2009-05-20 04:34:53 51°14.354 2°55.064 304.7 10.4 304 9.7
2009-05-20 04:34:57 51°14.36 2°55.048 304.9 10.4 303 9.7
2009-05-20 04:35:03 51°14.37 2°55.025 305.9 10.5 304 9.4
2009-05-20 04:35:07 51°14.377 2°55.009 306.2 10.7 302 9.4
2009-05-20 04:35:11 51°14.383 2°54.993 304.6 10.8 302 9.4
2009-05-20 04:35:17 51°14.392 2°54.968 303.6 10.9 302 9.5
2009-05-20 04:35:23 51°14.403 2°54.944 304.9 11 305 9.7
2009-05-20 04:35:27 51°14.41 2°54.928 307.7 11.1 307 9.8
2009-05-20 04:35:31 51°14.418 2°54.913 310.5 11.2 308 9.7
2009-05-20 04:35:37 51°14.429 2°54.89 312.2 11.2 309 9.7
2009-05-20 04:35:43 51°14.44 2°54.865 311.1 11.3 305 9.7
2009-05-20 04:35:47 51°14.448 2°54.85 310.7 11.4 308 9.7
2009-05-20 04:35:52 51°14.457 2°54.829 310.8 11.5 306 9.7
2009-05-20 04:35:57 51°14.467 2°54.809 311.2 11.5 308 9.7
2009-05-20 04:36:03 51°14.479 2°54.784 311.6 11.6 307 9.7
2009-05-20 04:36:07 51°14.487 2°54.768 311.6 11.7 307 9.7
2009-05-20 04:36:12 51°14.496 2°54.748 312.2 11.7 307 9.7
2009-05-20 04:36:17 51°14.506 2°54.727 312.4 11.7 308 9.7
2009-05-20 04:36:23 51°14.518 2°54.703 312.5 11.7 308 9.7
2009-05-20 04:36:27 51°14.526 2°54.686 311.5 11.8 304 9.7
2009-05-20 04:36:31 51°14.533 2°54.668 309.8 11.8 304 9.7
2009-05-20 04:36:37 51°14.544 2°54.642 309.3 11.8 303 9.7
2009-05-20 04:36:43 51°14.554 2°54.615 308.4 11.9 302 9.7
2009-05-20 04:36:47 51°14.561 2°54.597 307.7 11.9 301 9.7
2009-05-20 04:36:53 51°14.571 2°54.57 307 12 301 9.6
2009-05-20 04:36:57 51°14.578 2°54.551 306.5 12 300 9.7
2009-05-20 04:37:03 51°14.588 2°54.524 306.4 12 300 9.6
2009-05-20 04:37:07 51°14.595 2°54.506 306.3 12 301 9.7
2009-05-20 04:37:13 51°14.605 2°54.478 306.4 12.1 301 9.6
2009-05-20 04:37:17 51°14.612 2°54.46 306.4 12.1 300 9.7
2009-05-20 04:37:23 51°14.622 2°54.432 306.3 12.1 300 9.6
2009-05-20 04:37:27 51°14.629 2°54.414 306.2 12.1 300 9.7
2009-05-20 04:37:31 51°14.636 2°54.395 306.3 12.1 300 9.6
2009-05-20 04:37:37 51°14.646 2°54.368 306.3 12.1 300 9.6
2009-05-20 04:37:43 51°14.656 2°54.34 306.3 12.1 300 9.6
2009-05-20 04:37:47 51°14.663 2°54.321 306.2 12.1 300 9.7
2009-05-20 04:37:51 51°14.669 2°54.302 305.5 12.1 299 9.6
2009-05-20 04:37:57 51°14.679 2°54.274 304.2 12.2 297 9.7
2009-05-20 04:38:03 51°14.688 2°54.245 302.9 12.1 297 9.7
2009-05-20 04:38:07 51°14.694 2°54.226 302.6 12.2 297 9.7
2009-05-20 04:38:12 51°14.701 2°54.202 301.7 12.2 296 9.6
2009-05-20 04:38:17 51°14.709 2°54.178 301.3 12.1 296 9.6
2009-05-20 04:38:23 51°14.717 2°54.148 300.6 12.2 295 9.7
2009-05-20 04:38:27 51°14.723 2°54.129 300.6 12.1 296 9.7
2009-05-20 04:38:31 51°14.729 2°54.109 300.3 12.2 295 9.6
2009-05-20 04:38:37 51°14.737 2°54.08 299.9 12.2 295 9.5
2009-05-20 04:38:43 51°14.745 2°54.051 299.8 12.2 295 9.6
2009-05-20 04:38:47 51°14.751 2°54.031 299.8 12.1 295 9.4
2009-05-20 04:38:53 51°14.759 2°54.001 299.8 12.2 295 9.4
2009-05-20 04:38:57 51°14.765 2°53.982 299.8 12.2 294 9.3
2009-05-20 04:39:03 51°14.773 2°53.952 299.7 12.2 294 9.2
2009-05-20 04:39:07 51°14.779 2°53.933 299.7 12.1 294 9.2
2009-05-20 04:39:12 51°14.786 2°53.909 299.8 12.1 295 9.3
2009-05-20 04:39:17 51°14.792 2°53.884 298.8 12.1 292 9.2
2009-05-20 04:39:23 51°14.8 2°53.854 297.4 12.1 292 9.2
2009-05-20 04:39:27 51°14.805 2°53.834 296.9 12.1 291 9.2
2009-05-20 04:39:31 51°14.809 2°53.813 295.8 12.2 290 9.3
2009-05-20 04:39:37 51°14.816 2°53.783 295.4 12.2 290 9.3
2009-05-20 04:39:43 51°14.823 2°53.752 294.7 12.2 289 9.2
2009-05-20 04:39:47 51°14.827 2°53.732 294.1 12.2 289 9.3
2009-05-20 04:39:51 51°14.832 2°53.711 293.7 12.2 288 9.4
2009-05-20 04:39:57 51°14.838 2°53.681 293.5 12.2 289 9.4
2009-05-20 04:40:03 51°14.844 2°53.65 293.5 12.2 288 9.4
2009-05-20 04:40:07 51°14.849 2°53.629 293.5 12.2 288 9.4
2009-05-20 04:40:12 51°14.854 2°53.603 293.2 12.3 288 9.5
2009-05-20 04:40:17 51°14.859 2°53.577 292.8 12.3 287 9.3
2009-05-20 04:40:23 51°14.865 2°53.547 292.8 12.2 288 9.3
2009-05-20 04:40:27 51°14.87 2°53.526 293.2 12.3 288 9.3
2009-05-20 04:40:31 51°14.874 2°53.506 293.7 12.2 289 9.4
2009-05-20 04:40:37 51°14.881 2°53.475 293.8 12.3 288 9.4
2009-05-20 04:40:43 51°14.887 2°53.444 293.9 12.3 288 9.4
2009-05-20 04:40:47 51°14.891 2°53.424 293.6 12.2 288 9.4
2009-05-20 04:40:51 51°14.896 2°53.403 293.7 12.3 289 9.5
2009-05-20 04:40:57 51°14.902 2°53.372 293.9 12.3 288 9.5
2009-05-20 04:41:03 51°14.908 2°53.341 292.8 12.3 287 9.4
2009-05-20 04:41:07 51°14.913 2°53.32 292.6 12.3 288 9.5
2009-05-20 04:41:13 51°14.919 2°53.289 292.7 12.3 288 9.5
2009-05-20 04:41:17 51°14.923 2°53.269 292.8 12.2 288 9.5
2009-05-20 04:41:23 51°14.929 2°53.238 292.6 12.3 287 9.6
2009-05-20 04:41:27 51°14.933 2°53.217 292.1 12.3 287 9.5
2009-05-20 04:41:33 51°14.939 2°53.186 291.9 12.3 287 9.6
2009-05-20 04:41:37 51°14.943 2°53.165 291.5 12.3 286 9.6
2009-05-20 04:41:43 51°14.949 2°53.134 291.3 12.2 286 9.6
2009-05-20 04:41:47 51°14.952 2°53.114 291.3 12.2 286 9.6
2009-05-20 04:41:53 51°14.958 2°53.083 291.3 12.2 287 9.6
2009-05-20 04:41:57 51°14.962 2°53.062 291.4 12.1 286 9.7
2009-05-20 04:42:03 51°14.968 2°53.031 291.4 12.1 287 9.8
2009-05-20 04:42:07 51°14.972 2°53.011 292 12.1 287 9.7
2009-05-20 04:42:12 51°14.977 2°52.986 292.5 12.1 288 9.7
2009-05-20 04:42:17 51°14.982 2°52.96 292.5 12.1 287 9.7
2009-05-20 04:42:23 51°14.988 2°52.929 292.1 12.1 287 9.8
2009-05-20 04:42:27 51°14.992 2°52.908 292.2 12.1 288 9.8
2009-05-20 04:42:31 51°14.997 2°52.888 292.8 12.2 288 9.8
2009-05-20 04:42:37 51°15.003 2°52.857 293.2 12.2 288 10
2009-05-20 04:42:43 51°15.009 2°52.827 293.2 12.1 288 10
2009-05-20 04:42:47 51°15.013 2°52.806 293.1 12.1 288 9.9
2009-05-20 04:42:51 51°15.017 2°52.786 292.6 12.1 287 9.9
2009-05-20 04:42:57 51°15.023 2°52.755 292.3 12.2 287 9.8
2009-05-20 04:43:03 51°15.029 2°52.724 292.3 12.2 287 10
2009-05-20 04:43:07 51°15.033 2°52.703 292.2 12.2 287 10
2009-05-20 04:43:12 51°15.039 2°52.678 292.7 12.1 288 10
2009-05-20 04:43:17 51°15.044 2°52.653 292.8 12.1 287 10
2009-05-20 04:43:23 51°15.05 2°52.622 292.9 12.1 288 10.1
2009-05-20 04:43:27 51°15.054 2°52.602 293.1 12.2 288 10
2009-05-20 04:43:31 51°15.058 2°52.581 293.1 12.2 288 10
2009-05-20 04:43:37 51°15.064 2°52.551 293 12.1 288 10
2009-05-20 04:43:43 51°15.07 2°52.52 292.9 12.1 288 10.1
2009-05-20 04:43:47 51°15.074 2°52.499 292.9 12.2 287 10.1
2009-05-20 04:43:53 51°15.081 2°52.469 292.8 12.1 288 10.1
2009-05-20 04:43:57 51°15.085 2°52.448 292.7 12.2 288 10.1
2009-05-20 04:44:03 51°15.091 2°52.418 293 12.2 288 10.1
2009-05-20 04:44:07 51°15.095 2°52.397 293 12.2 288 10.1
2009-05-20 04:44:11 51°15.099 2°52.377 293.2 12.2 289 10.2
2009-05-20 04:44:17 51°15.106 2°52.346 293.3 12.2 288 10.2
2009-05-20 04:44:23 51°15.113 2°52.316 294.5 12.1 292 10.2
2009-05-20 04:44:27 51°15.117 2°52.295 295.9 12.2 290 10.3
2009-05-20 04:44:31 51°15.122 2°52.275 296.8 12.1 293 10.3
2009-05-20 04:44:37 51°15.13 2°52.246 297.7 12.2 292 10.4
2009-05-20 04:44:43 51°15.138 2°52.216 298.1 12.1 294 10.4
2009-05-20 04:44:47 51°15.143 2°52.197 298.8 12.1 294 10.4
2009-05-20 04:44:51 51°15.149 2°52.177 299.2 12.1 294 10.5
2009-05-20 04:44:57 51°15.157 2°52.148 299.6 12.1 295 10.5
2009-05-20 04:45:03 51°15.166 2°52.119 300 12.1 295 10.6
2009-05-20 04:45:07 51°15.171 2°52.1 300.3 12.1 295 10.6
2009-05-20 04:45:12 51°15.179 2°52.076 300.5 12.1 295 10.7
2009-05-20 04:45:17 51°15.186 2°52.052 300.5 12.1 295 10.7
2009-05-20 04:45:23 51°15.194 2°52.022 300.4 12.2 295 10.8
2009-05-20 04:45:27 51°15.2 2°52.003 300.3 12.2 295 10.9
2009-05-20 04:45:31 51°15.206 2°51.984 300.5 12.2 295 10.9
2009-05-20 04:45:37 51°15.215 2°51.955 300.7 12.1 296 11
2009-05-20 04:45:43 51°15.223 2°51.926 300.7 12.1 295 11.1
2009-05-20 04:45:47 51°15.229 2°51.906 300.6 12.1 295 11.1
2009-05-20 04:45:53 51°15.237 2°51.876 300.2 12.2 295 11.1
2009-05-20 04:45:57 51°15.243 2°51.857 300.2 12.2 295 11.1
2009-05-20 04:46:03 51°15.252 2°51.828 300.2 12.2 295 11.2
2009-05-20 04:46:07 51°15.257 2°51.808 300.6 12.2 295 11.3
2009-05-20 04:46:13 51°15.266 2°51.779 300.6 12.2 294 11.4
2009-05-20 04:46:17 51°15.271 2°51.759 300.1 12.1 295 11.5
2009-05-20 04:46:23 51°15.28 2°51.73 300.3 12.1 293 11.5
2009-05-20 04:46:27 51°15.284 2°51.709 299.4 12.1 292 11.5
2009-05-20 04:46:31 51°15.289 2°51.689 296.6 12.2 287 11.5
2009-05-20 04:46:37 51°15.294 2°51.657 292.6 12.2 286 11.6
2009-05-20 04:46:43 51°15.299 2°51.626 290.4 12.2 284 11.7
2009-05-20 04:46:47 51°15.302 2°51.605 288.2 12.3 282 11.6
2009-05-20 04:46:51 51°15.304 2°51.583 286.6 12.3 281 11.7
2009-05-20 04:46:57 51°15.308 2°51.551 284.9 12.3 279 11.7
2009-05-20 04:47:03 51°15.311 2°51.519 283.8 12.3 278 11.8
2009-05-20 04:47:07 51°15.312 2°51.497 282.1 12.3 276 11.9
2009-05-20 04:47:12 51°15.314 2°51.47 280 12.4 275 11.9
2009-05-20 04:47:17 51°15.315 2°51.443 279 12.3 274 11.9
2009-05-20 04:47:23 51°15.316 2°51.41 277.6 12.4 272 11.9
2009-05-20 04:47:27 51°15.317 2°51.388 276.5 12.4 272 11.9
2009-05-20 04:47:32 51°15.317 2°51.36 275.3 12.4 271 12
2009-05-20 04:47:37 51°15.317 2°51.333 274.9 12.4 271 12
2009-05-20 04:47:43 51°15.317 2°51.3 274.4 12.5 270 12
2009-05-20 04:47:47 51°15.317 2°51.278 273.3 12.4 269 12
2009-05-20 04:47:53 51°15.317 2°51.245 273.2 12.5 270 12.1
2009-05-20 04:47:57 51°15.316 2°51.223 272.6 12.5 267 12.1
2009-05-20 04:48:03 51°15.316 2°51.19 271.7 12.4 268 12.1
2009-05-20 04:48:07 51°15.315 2°51.168 271.4 12.4 267 12.1
2009-05-20 04:48:13 51°15.314 2°51.135 271.4 12.5 268 12.1
2009-05-20 04:48:17 51°15.314 2°51.113 271.9 12.5 269 12.1
2009-05-20 04:48:23 51°15.313 2°51.079 271.9 12.5 267 12.2
2009-05-20 04:48:27 51°15.312 2°51.057 271.4 12.5 268 12.1
2009-05-20 04:48:32 51°15.312 2°51.03 271.1 12.5 267 12.1
2009-05-20 04:48:37 51°15.311 2°51.002 270.7 12.5 267 12.2
2009-05-20 04:48:43 51°15.31 2°50.969 270.8 12.5 268 12.3
2009-05-20 04:48:47 51°15.309 2°50.947 271.2 12.5 268 12.3
2009-05-20 04:48:51 51°15.309 2°50.925 271.5 12.5 269 12.2
2009-05-20 04:48:57 51°15.309 2°50.892 272.1 12.5 269 12.2
2009-05-20 04:49:03 51°15.309 2°50.859 273 12.5 270 12.2
2009-05-20 04:49:07 51°15.308 2°50.837 273.2 12.4 269 12.2
2009-05-20 04:49:11 51°15.308 2°50.815 273.6 12.5 270 12.3
2009-05-20 04:49:17 51°15.308 2°50.781 274 12.5 270 12.4
2009-05-20 04:49:23 51°15.309 2°50.748 274.3 12.5 271 12.3
2009-05-20 04:49:27 51°15.309 2°50.727 274.4 12.5 270 12.3
2009-05-20 04:49:32 51°15.309 2°50.699 273.9 12.5 270 12.3
2009-05-20 04:49:37 51°15.309 2°50.671 273.7 12.5 270 12.4
2009-05-20 04:49:43 51°15.309 2°50.638 274.2 12.5 270 12.4
2009-05-20 04:49:47 51°15.309 2°50.616 274.4 12.5 271 12.4
2009-05-20 04:49:51 51°15.309 2°50.594 274.7 12.5 271 12.4
2009-05-20 04:49:57 51°15.309 2°50.561 274.5 12.5 271 12.4
2009-05-20 04:50:03 51°15.31 2°50.527 274.6 12.5 271 12.4
2009-05-20 04:50:07 51°15.31 2°50.505 274.9 12.5 270 12.4
2009-05-20 04:50:13 51°15.31 2°50.472 274.6 12.5 270 12.4
2009-05-20 04:50:17 51°15.31 2°50.45 274.4 12.5 271 12.4
2009-05-20 04:50:23 51°15.31 2°50.417 274.3 12.5 270 12.5
2009-05-20 04:50:27 51°15.311 2°50.395 274.4 12.5 271 12.4
2009-05-20 04:50:33 51°15.311 2°50.361 274.6 12.5 270 12.4
2009-05-20 04:50:37 51°15.311 2°50.339 274.4 12.5 270 12.5
2009-05-20 04:50:43 51°15.311 2°50.306 274.3 12.5 270 12.5
2009-05-20 04:50:47 51°15.311 2°50.284 274.3 12.5 270 12.5
2009-05-20 04:50:53 51°15.311 2°50.25 274.2 12.5 270 12.5
2009-05-20 04:50:57 51°15.311 2°50.228 274.1 12.5 270 12.5
2009-05-20 04:51:03 51°15.311 2°50.195 274.2 12.4 270 12.4
2009-05-20 04:51:07 51°15.311 2°50.173 273.7 12.6 269 12.4
2009-05-20 04:51:11 51°15.311 2°50.15 273 12.6 269 12.5
2009-05-20 04:51:17 51°15.311 2°50.118 272.8 12.5 269 12.4
2009-05-20 04:51:23 51°15.311 2°50.084 273.1 12.5 270 12.6
2009-05-20 04:51:27 51°15.311 2°50.062 273.7 12.5 270 12.5
2009-05-20 04:51:31 51°15.311 2°50.04 274.1 12.4 270 12.4
2009-05-20 04:51:37 51°15.311 2°50.007 274.2 12.5 270 12.4
2009-05-20 04:51:43 51°15.311 2°49.974 274.1 12.5 270 12.5
2009-05-20 04:51:47 51°15.311 2°49.952 274.5 12.4 271 12.4
2009-05-20 04:51:52 51°15.311 2°49.924 274.6 12.4 271 12.6
2009-05-20 04:51:57 51°15.311 2°49.897 274.6 12.4 271 12.5
2009-05-20 04:52:03 51°15.311 2°49.863 274.5 12.5 270 12.4
2009-05-20 04:52:07 51°15.312 2°49.842 274.2 12.5 270 12.4
2009-05-20 04:52:12 51°15.311 2°49.814 273.6 12.4 269 12.4
2009-05-20 04:52:17 51°15.311 2°49.787 273 12.4 269 12.5
2009-05-20 04:52:23 51°15.31 2°49.754 272.5 12.4 269 12.4
2009-05-20 04:52:27 51°15.31 2°49.731 272.2 12.5 269 12.3
2009-05-20 04:52:32 51°15.31 2°49.704 272.2 12.5 269 12.5
2009-05-20 04:52:37 51°15.309 2°49.677 272.2 12.4 269 12.5
2009-05-20 04:52:43 51°15.309 2°49.644 272.2 12.4 269 12.4
2009-05-20 04:52:47 51°15.308 2°49.622 272.1 12.3 269 12.5
2009-05-20 04:52:53 51°15.308 2°49.589 272 12.4 268 12.5
2009-05-20 04:52:57 51°15.307 2°49.567 272 12.3 269 12.6
2009-05-20 04:53:03 51°15.307 2°49.534 272.2 12.3 269 12.6
2009-05-20 04:53:07 51°15.307 2°49.512 272.4 12.4 269 12.5
2009-05-20 04:53:13 51°15.306 2°49.48 272.7 12.3 269 12.5
2009-05-20 04:53:17 51°15.306 2°49.458 272.9 12.3 269 12.6
2009-05-20 04:53:23 51°15.306 2°49.425 272.9 12.3 269 12.6
2009-05-20 04:53:27 51°15.306 2°49.403 272.9 12.4 269 12.5
2009-05-20 04:53:32 51°15.306 2°49.375 272.7 12.4 269 12.6
2009-05-20 04:53:36 51°15.305 2°49.353 272.5 12.4 269 12.5
2009-05-20 04:53:43 51°15.305 2°49.315 272.6 12.3 269 12.6
2009-05-20 04:53:47 51°15.305 2°49.294 273.2 12.3 270 12.3
2009-05-20 04:53:52 51°15.305 2°49.267 273.2 12.3 270 12.6
2009-05-20 04:53:57 51°15.305 2°49.239 273.3 12.3 270 12.6
2009-05-20 04:54:03 51°15.305 2°49.207 273.3 12.2 270 12.6
2009-05-20 04:54:07 51°15.305 2°49.185 273.6 12.1 270 12.7
2009-05-20 04:54:11 51°15.305 2°49.164 273.6 12.2 270 12.7
2009-05-20 04:54:17 51°15.304 2°49.131 273.5 12.2 270 12.6
2009-05-20 04:54:23 51°15.304 2°49.099 273.2 12.1 269 12.7
2009-05-20 04:54:27 51°15.304 2°49.078 273.2 12.1 270 12.7
2009-05-20 04:54:32 51°15.304 2°49.051 273.3 12.2 269 12.7
2009-05-20 04:54:37 51°15.304 2°49.024 273.5 12.1 270 12.7
2009-05-20 04:54:43 51°15.304 2°48.992 273.6 12.1 269 12.7
2009-05-20 04:54:47 51°15.303 2°48.971 272.2 12.1 268 12.7
2009-05-20 04:54:52 51°15.303 2°48.944 271.4 12.1 268 12.7
2009-05-20 04:54:57 51°15.302 2°48.917 271.3 12.1 268 12.7
2009-05-20 04:55:03 51°15.301 2°48.885 271.6 12.1 269 12.7
2009-05-20 04:55:07 51°15.301 2°48.863 271.9 12.1 268 12.7
2009-05-20 04:55:13 51°15.3 2°48.831 271.9 12.1 269 12.7
2009-05-20 04:55:18 51°15.3 2°48.804 271.9 12.2 268 12.7
2009-05-20 04:55:23 51°15.299 2°48.777 271.9 12.2 268 12.7
2009-05-20 04:55:27 51°15.299 2°48.755 271.5 12.2 268 12.7
2009-05-20 04:55:31 51°15.298 2°48.734 271.5 12.1 268 12.6
2009-05-20 04:55:38 51°15.297 2°48.696 271.7 12.2 268 12.6
2009-05-20 04:55:43 51°15.297 2°48.669 271.7 12.1 268 12.6
2009-05-20 04:55:47 51°15.296 2°48.648 271.5 12.1 268 12.6
2009-05-20 04:55:52 51°15.295 2°48.621 271.4 12.2 268 12.5
2009-05-20 04:55:57 51°15.295 2°48.594 271.4 12.2 268 12.4
2009-05-20 04:56:03 51°15.294 2°48.562 271.4 12.2 267 12.3
2009-05-20 04:56:08 51°15.293 2°48.535 271.1 12.2 267 12.2
2009-05-20 04:56:12 51°15.292 2°48.514 271.2 12.1 268 12.1
2009-05-20 04:56:18 51°15.292 2°48.482 271.4 12.1 268 11.9
2009-05-20 04:56:23 51°15.291 2°48.455 271.3 12.1 267 11.8
2009-05-20 04:56:27 51°15.29 2°48.433 271.3 12.1 268 11.7
2009-05-20 04:56:32 51°15.29 2°48.407 271.5 12.1 268 11.5
2009-05-20 04:56:38 51°15.288 2°48.375 271 12.1 267 11.4
2009-05-20 04:56:43 51°15.288 2°48.348 271 12 268 11.2
2009-05-20 04:56:47 51°15.287 2°48.327 270.9 12 267 11
2009-05-20 04:56:52 51°15.286 2°48.3 270.7 12.1 267 10.8
2009-05-20 04:56:57 51°15.285 2°48.274 270.6 12 267 10.8
2009-05-20 04:57:03 51°15.284 2°48.242 270.6 12.1 267 10.6
2009-05-20 04:57:07 51°15.283 2°48.22 270.6 12.1 266 10.5
2009-05-20 04:57:13 51°15.282 2°48.189 270.1 12.1 266 10.4
2009-05-20 04:57:17 51°15.28 2°48.168 269.4 12 265 10.2
2009-05-20 04:57:23 51°15.279 2°48.136 269 12 265 10.2
2009-05-20 04:57:27 51°15.278 2°48.115 269.3 12 266 10
2009-05-20 04:57:33 51°15.276 2°48.083 269.9 12 266 10
2009-05-20 04:57:37 51°15.276 2°48.062 270.3 11.9 266 10
2009-05-20 04:57:43 51°15.274 2°48.031 270.3 11.9 266 9.9
2009-05-20 04:57:47 51°15.273 2°48.01 270.3 12 267 9.8
2009-05-20 04:57:52 51°15.273 2°47.983 270.6 12 267 9.7
2009-05-20 04:57:57 51°15.272 2°47.957 271.1 12 267 9.7
2009-05-20 04:58:03 51°15.271 2°47.925 271.1 12 267 9.7
2009-05-20 04:58:08 51°15.27 2°47.899 271 12 267 9.6
2009-05-20 04:58:12 51°15.269 2°47.878 270.9 12 267 9.5
2009-05-20 04:58:18 51°15.268 2°47.846 271 11.9 267 9.5
2009-05-20 04:58:23 51°15.267 2°47.82 271.1 11.9 267 9.5
2009-05-20 04:58:27 51°15.267 2°47.799 271.2 11.9 267 9.5
2009-05-20 04:58:32 51°15.266 2°47.772 270.8 12 266 9.5
2009-05-20 04:58:38 51°15.264 2°47.74 270.6 12 267 9.4
2009-05-20 04:58:43 51°15.264 2°47.714 270.7 12 267 9.4
2009-05-20 04:58:47 51°15.263 2°47.693 270.8 12 266 9.4
2009-05-20 04:58:52 51°15.262 2°47.667 270.7 12 266 9.4
2009-05-20 04:58:57 51°15.26 2°47.64 269.5 12 264 9.4
2009-05-20 04:59:03 51°15.258 2°47.609 268.9 11.9 265 9.4
2009-05-20 04:59:08 51°15.256 2°47.582 268.4 12 264 9.5
2009-05-20 04:59:13 51°15.255 2°47.556 268 12 264 9.5
2009-05-20 04:59:17 51°15.253 2°47.535 267.9 12.1 263 9.4
2009-05-20 04:59:23 51°15.251 2°47.503 267.4 12.1 264 9.4
2009-05-20 04:59:27 51°15.249 2°47.482 267.3 12.1 263 9.5
2009-05-20 04:59:33 51°15.247 2°47.45 267.2 12.1 264 9.5
2009-05-20 04:59:37 51°15.246 2°47.429 267.5 12 264 9.5
2009-05-20 04:59:43 51°15.243 2°47.398 267.7 12 264 9.6
2009-05-20 04:59:47 51°15.242 2°47.377 267.5 12 264 9.6
2009-05-20 04:59:53 51°15.24 2°47.345 267.2 11.9 263 9.7
2009-05-20 04:59:57 51°15.238 2°47.324 267.2 12 263 9.8
2009-05-20 05:00:03 51°15.236 2°47.292 267.4 12 264 9.7
2009-05-20 05:00:07 51°15.234 2°47.271 267.4 12.1 263 9.8
2009-05-20 05:00:12 51°15.232 2°47.244 267 12.1 262 9.8
2009-05-20 05:00:18 51°15.229 2°47.213 266.1 12.1 262 9.9
2009-05-20 05:00:23 51°15.227 2°47.187 265.6 12 262 9.9
2009-05-20 05:00:27 51°15.225 2°47.166 265 11.9 261 10
2009-05-20 05:00:32 51°15.223 2°47.139 264.8 12 261 10
2009-05-20 05:00:38 51°15.22 2°47.108 264.9 12 261 10.1
2009-05-20 05:00:43 51°15.217 2°47.081 264.4 12 261 10.1
2009-05-20 05:00:47 51°15.215 2°47.06 264.3 12 262 10.2
2009-05-20 05:00:52 51°15.213 2°47.034 265.4 12 263 10.2
2009-05-20 05:00:57 51°15.211 2°47.008 265.8 12 263 10.3
2009-05-20 05:01:03 51°15.208 2°46.976 266.3 12.1 263 10.3
2009-05-20 05:01:07 51°15.207 2°46.955 265.9 12.1 262 10.3
2009-05-20 05:01:13 51°15.204 2°46.923 265.6 12.1 262 10.5
2009-05-20 05:01:17 51°15.202 2°46.902 265.5 12.1 262 10.5
2009-05-20 05:01:23 51°15.199 2°46.87 265.6 12.1 263 10.5
2009-05-20 05:01:27 51°15.198 2°46.849 265.7 12.1 262 10.6
2009-05-20 05:01:33 51°15.195 2°46.817 265.9 12 262 10.6
2009-05-20 05:01:37 51°15.193 2°46.796 265.8 12.1 262 10.8
2009-05-20 05:01:43 51°15.19 2°46.765 265.7 12 262 10.9
2009-05-20 05:01:47 51°15.189 2°46.744 265.5 12 262 11
2009-05-20 05:01:53 51°15.186 2°46.712 265.3 12 262 11
2009-05-20 05:01:57 51°15.184 2°46.691 265.5 12 263 11.1
2009-05-20 05:02:03 51°15.182 2°46.659 265.9 12.1 263 11.3
2009-05-20 05:02:07 51°15.18 2°46.638 265.9 12 263 11.3
2009-05-20 05:02:12 51°15.178 2°46.611 266 12 263 11.3
2009-05-20 05:02:18 51°15.176 2°46.579 266.5 12.1 264 11.4
2009-05-20 05:02:23 51°15.174 2°46.553 266.7 12.1 263 11.5
2009-05-20 05:02:27 51°15.172 2°46.532 266.6 12.1 263 11.5
2009-05-20 05:02:32 51°15.17 2°46.505 266.3 12 263 11.6
2009-05-20 05:02:38 51°15.168 2°46.473 266.8 12.1 264 11.7
2009-05-20 05:02:43 51°15.166 2°46.447 267.5 12.1 265 11.7
2009-05-20 05:02:47 51°15.165 2°46.425 268 12.2 265 11.8
2009-05-20 05:02:52 51°15.163 2°46.398 268.4 12.2 265 12
2009-05-20 05:02:58 51°15.162 2°46.367 268.7 12.1 265 12.1
2009-05-20 05:03:03 51°15.161 2°46.34 269 12.2 266 12.1
2009-05-20 05:03:07 51°15.159 2°46.318 268.9 12.2 265 12.1
2009-05-20 05:03:12 51°15.158 2°46.292 268.8 12.1 266 12.2
2009-05-20 05:03:17 51°15.156 2°46.265 268.8 12.2 265 12.4
2009-05-20 05:03:23 51°15.155 2°46.232 268.7 12.3 265 12.5
2009-05-20 05:03:27 51°15.153 2°46.211 268.5 12.2 265 12.6
2009-05-20 05:03:32 51°15.152 2°46.185 268.6 12.1 265 12.7
2009-05-20 05:03:37 51°15.151 2°46.157 268.6 12.2 265 12.8
2009-05-20 05:03:43 51°15.149 2°46.125 268.4 12.1 264 12.9
2009-05-20 05:03:47 51°15.147 2°46.104 268.2 12.2 265 13
2009-05-20 05:03:52 51°15.146 2°46.077 268.4 12.2 265 13.2
2009-05-20 05:03:57 51°15.144 2°46.05 268.5 12.2 265 13.3
2009-05-20 05:04:03 51°15.142 2°46.018 268.3 12.2 264 13.3
2009-05-20 05:04:07 51°15.141 2°45.996 267.9 12.4 264 13.6
2009-05-20 05:04:12 51°15.139 2°45.969 268.2 12.3 265 13.5
2009-05-20 05:04:18 51°15.137 2°45.936 268.1 12.4 264 13.7
2009-05-20 05:04:23 51°15.135 2°45.909 267.9 12.4 265 13.8
2009-05-20 05:04:27 51°15.134 2°45.888 268.4 12.4 265 13.8
2009-05-20 05:04:33 51°15.132 2°45.855 268.3 12.3 264 -999
2009-05-20 05:04:39 51°15.13 2°45.823 268.2 12.3 265 -999
2009-05-20 05:04:44 51°15.129 2°45.796 268.3 12.2 265 -999
2009-05-20 05:04:50 51°15.127 2°45.764 268.3 12.3 264 -999
2009-05-20 05:04:55 51°15.125 2°45.737 267.9 12.3 264 -999
2009-05-20 05:05:01 51°15.123 2°45.704 267.8 12.3 265 -999
2009-05-20 05:05:06 51°15.121 2°45.677 268.3 12.3 264 -999
2009-05-20 05:05:11 51°15.12 2°45.65 268.2 12.3 264 -999
2009-05-20 05:05:16 51°15.118 2°45.623 268 12.3 264 -999
2009-05-20 05:05:21 51°15.117 2°45.596 268 12.3 265 -999
2009-05-20 05:05:27 51°15.114 2°45.563 268.3 12.3 264 -999
2009-05-20 05:05:31 51°15.113 2°45.542 267.9 12.3 264 -999
2009-05-20 05:05:36 51°15.111 2°45.515 267.9 12.2 264 -999
2009-05-20 05:05:41 51°15.11 2°45.488 267.9 12.3 264 -999
2009-05-20 05:05:47 51°15.108 2°45.455 267.6 12.2 264 -999
2009-05-20 05:05:51 51°15.106 2°45.434 267.5 12.2 264 -999
2009-05-20 05:05:56 51°15.105 2°45.407 267.5 12.2 264 -999
2009-05-20 05:06:01 51°15.103 2°45.38 267.6 12.3 265 -999
2009-05-20 05:06:06 51°15.101 2°45.353 267.6 12.3 264 -999
2009-05-20 05:06:11 51°15.1 2°45.326 267.7 12.2 265 -999
2009-05-20 05:06:16 51°15.098 2°45.299 267.8 12.3 264 -999
2009-05-20 05:06:21 51°15.096 2°45.272 267.6 12.3 264 -999
2009-05-20 05:06:26 51°15.095 2°45.245 267.2 12.3 264 -999
2009-05-20 05:06:31 51°15.093 2°45.218 267.2 12.3 264 -999
2009-05-20 05:06:36 51°15.091 2°45.191 267.2 12.3 263 -999
2009-05-20 05:06:41 51°15.089 2°45.164 266.2 12.2 263 -999
2009-05-20 05:06:46 51°15.087 2°45.137 265.9 12.3 264 -999
2009-05-20 05:06:51 51°15.085 2°45.11 266.5 12.3 264 -999
2009-05-20 05:06:56 51°15.083 2°45.083 266.8 12.3 264 -999
2009-05-20 05:07:01 51°15.081 2°45.055 267.3 12.3 264 -999
2009-05-20 05:07:06 51°15.08 2°45.028 267.2 12.3 263 -999
2009-05-20 05:07:11 51°15.078 2°45.001 266.4 12.3 263 -999
2009-05-20 05:07:16 51°15.076 2°44.974 266.2 12.4 263 -999
2009-05-20 05:07:21 51°15.073 2°44.947 265.5 12.3 262 -999
2009-05-20 05:07:27 51°15.071 2°44.915 265.3 12.3 262 -999
2009-05-20 05:07:31 51°15.069 2°44.893 265.3 12.3 263 -999
2009-05-20 05:07:36 51°15.066 2°44.866 265.6 12.4 263 -999
2009-05-20 05:07:41 51°15.064 2°44.839 265.7 12.4 263 -999
2009-05-20 05:07:46 51°15.062 2°44.812 265.6 12.3 262 -999
2009-05-20 05:07:51 51°15.06 2°44.785 265.3 12.4 263 -999
2009-05-20 05:07:56 51°15.058 2°44.757 266.5 12.3 264 -999
2009-05-20 05:08:01 51°15.056 2°44.73 266.8 12.3 263 -999
2009-05-20 05:08:06 51°15.055 2°44.703 266.9 12.3 265 -999
2009-05-20 05:08:11 51°15.053 2°44.676 267.7 12.4 264 -999
2009-05-20 05:08:16 51°15.051 2°44.648 267.2 12.4 264 -999
2009-05-20 05:08:21 51°15.049 2°44.621 266.9 12.4 263 -999
2009-05-20 05:08:26 51°15.047 2°44.594 266.7 12.3 265 -999
2009-05-20 05:08:31 51°15.046 2°44.567 267.4 12.5 264 -999
2009-05-20 05:08:36 51°15.044 2°44.539 267.9 12.4 266 -999
2009-05-20 05:08:41 51°15.043 2°44.512 268.2 12.4 265 -999
2009-05-20 05:08:46 51°15.041 2°44.485 268.5 12.4 266 -999
2009-05-20 05:08:51 51°15.04 2°44.457 268.6 12.4 265 -999
2009-05-20 05:08:56 51°15.038 2°44.43 268.3 12.5 265 -999
2009-05-20 05:09:01 51°15.037 2°44.402 268 12.4 265 -999
2009-05-20 05:09:06 51°15.036 2°44.375 267.9 12.4 265 -999
2009-05-20 05:09:11 51°15.034 2°44.347 268.3 12.4 265 -999
2009-05-20 05:09:16 51°15.033 2°44.32 268.3 12.4 265 -999
2009-05-20 05:09:21 51°15.031 2°44.293 268.2 12.4 265 -999
2009-05-20 05:09:26 51°15.029 2°44.265 267.9 12.4 265 -999
2009-05-20 05:09:31 51°15.028 2°44.238 268 12.4 265 -999
2009-05-20 05:09:36 51°15.026 2°44.211 268.2 12.4 264 -999
2009-05-20 05:09:41 51°15.024 2°44.183 267.9 12.4 264 -999
2009-05-20 05:09:47 51°15.022 2°44.151 267.8 12.4 265 -999
2009-05-20 05:09:51 51°15.021 2°44.129 267.6 12.4 264 -999
2009-05-20 05:09:56 51°15.019 2°44.102 267.4 12.4 264 -999
2009-05-20 05:10:01 51°15.017 2°44.075 266.8 12.4 263 -999
2009-05-20 05:10:06 51°15.015 2°44.048 266.1 12.4 263 -999
2009-05-20 05:10:11 51°15.013 2°44.02 265.6 12.4 262 -999
2009-05-20 05:10:16 51°15.011 2°43.994 265.3 12.3 263 -999
2009-05-20 05:10:21 51°15.009 2°43.966 265.9 12.3 264 -999
2009-05-20 05:10:26 51°15.007 2°43.939 266.7 12.3 263 -999
2009-05-20 05:10:31 51°15.005 2°43.912 266.6 12.3 263 -999
2009-05-20 05:10:36 51°15.003 2°43.885 266.3 12.3 263 -999
2009-05-20 05:10:41 51°15 2°43.858 266.1 12.3 263 -999
2009-05-20 05:10:46 51°14.998 2°43.831 265.8 12.2 263 -999
2009-05-20 05:10:51 51°14.996 2°43.805 265.6 12.2 263 -999
2009-05-20 05:10:56 51°14.994 2°43.778 265.7 12.2 263 -999
2009-05-20 05:11:01 51°14.992 2°43.751 265.8 12.2 263 -999
2009-05-20 05:11:06 51°14.99 2°43.725 266.7 12.1 264 -999
2009-05-20 05:11:11 51°14.988 2°43.698 267.1 12.1 264 -999
2009-05-20 05:11:16 51°14.987 2°43.671 267.6 12.1 264 -999
2009-05-20 05:11:21 51°14.985 2°43.645 267.2 12.2 263 -999
2009-05-20 05:11:26 51°14.983 2°43.618 266.7 12.2 264 -999
2009-05-20 05:11:31 51°14.981 2°43.591 267.4 12.1 265 -999
2009-05-20 05:11:36 51°14.98 2°43.565 267.9 12.1 264 -999
2009-05-20 05:11:41 51°14.978 2°43.538 268.2 12.1 265 -999
2009-05-20 05:11:46 51°14.977 2°43.512 268.2 12.1 264 -999
2009-05-20 05:11:51 51°14.975 2°43.485 268.2 12.1 265 -999
2009-05-20 05:11:56 51°14.974 2°43.458 268.5 12.1 265 -999
2009-05-20 05:12:01 51°14.972 2°43.431 268.5 12.1 265 -999
2009-05-20 05:12:06 51°14.971 2°43.405 268.5 12.1 265 -999
2009-05-20 05:12:11 51°14.97 2°43.378 268.6 12.1 265 -999
2009-05-20 05:12:16 51°14.968 2°43.352 268.5 12.1 264 -999
2009-05-20 05:12:21 51°14.966 2°43.325 268.1 12.1 265 -999
2009-05-20 05:12:27 51°14.964 2°43.293 268.1 12 265 -999
2009-05-20 05:12:31 51°14.963 2°43.272 268.4 12 265 -999
2009-05-20 05:12:36 51°14.962 2°43.246 268.4 12 264 -999
2009-05-20 05:12:41 51°14.96 2°43.219 268.4 12 264 -999
2009-05-20 05:12:46 51°14.958 2°43.192 267.9 12 264 -999
2009-05-20 05:12:51 51°14.956 2°43.165 267.7 12.1 264 -999
2009-05-20 05:12:56 51°14.954 2°43.139 267.7 12.1 264 -999
2009-05-20 05:13:01 51°14.952 2°43.112 267.7 12.1 264 13.7
2009-05-20 05:13:06 51°14.951 2°43.086 267.7 12 264 14.1
2009-05-20 05:13:11 51°14.949 2°43.06 267.8 12 264 14.3
2009-05-20 05:13:15 51°14.948 2°43.038 267.9 12 264 14.1
2009-05-20 05:13:20 51°14.946 2°43.012 267.9 12.1 264 14
2009-05-20 05:13:25 51°14.944 2°42.985 267.7 12.1 264 14
2009-05-20 05:13:30 51°14.942 2°42.959 267.4 12 264 13.9
2009-05-20 05:13:35 51°14.94 2°42.933 267.7 12 264 13.9
2009-05-20 05:13:40 51°14.938 2°42.906 267.9 12.1 264 13.8
2009-05-20 05:13:44 51°14.937 2°42.885 267.9 12.1 263 13.6
2009-05-20 05:13:49 51°14.935 2°42.858 267.8 12 264 12.5
2009-05-20 05:13:54 51°14.933 2°42.832 267.8 12 263 12.2
2009-05-20 05:13:59 51°14.931 2°42.806 267.7 12 264 13.1
2009-05-20 05:14:04 51°14.93 2°42.779 268 12 264 13.5
2009-05-20 05:14:09 51°14.928 2°42.753 267.5 12.1 262 13.5
2009-05-20 05:14:14 51°14.925 2°42.727 266.6 12 263 13.5
2009-05-20 05:14:19 51°14.923 2°42.701 266.3 12 262 13.6
2009-05-20 05:14:23 51°14.921 2°42.68 265.7 12 262 13.5
2009-05-20 05:14:28 51°14.919 2°42.653 265.7 12 262 13.6
2009-05-20 05:14:33 51°14.916 2°42.627 265.7 12 262 13.6
2009-05-20 05:14:38 51°14.914 2°42.601 265.6 12 262 13.6
2009-05-20 05:14:43 51°14.912 2°42.574 265.8 12 263 13.5
2009-05-20 05:14:47 51°14.911 2°42.553 267 12 264 13.6
2009-05-20 05:14:52 51°14.909 2°42.527 267.3 12 264 13.4
2009-05-20 05:14:57 51°14.907 2°42.5 267.6 12 264 13.4
2009-05-20 05:15:03 51°14.905 2°42.469 267.8 12 264 13.4
2009-05-20 05:15:07 51°14.904 2°42.447 268.2 12 264 13.5
2009-05-20 05:15:12 51°14.902 2°42.421 267.7 12 263 13.5
2009-05-20 05:15:17 51°14.9 2°42.395 266.8 12 263 13.5
2009-05-20 05:15:23 51°14.898 2°42.363 266.7 12 264 13.5
2009-05-20 05:15:27 51°14.896 2°42.342 267.1 12 264 13.6
2009-05-20 05:15:33 51°14.894 2°42.311 267.8 12 264 13.6
2009-05-20 05:15:37 51°14.893 2°42.289 268 12 264 13.8
2009-05-20 05:15:43 51°14.891 2°42.258 268.2 12 264 13.5
2009-05-20 05:15:47 51°14.89 2°42.236 268.3 12 265 11.7
2009-05-20 05:15:53 51°14.888 2°42.205 268.4 12 265 12.7
2009-05-20 05:15:58 51°14.886 2°42.179 268.4 12 265 13.2
2009-05-20 05:16:03 51°14.885 2°42.152 268.5 12 264 13.2
2009-05-20 05:16:07 51°14.883 2°42.131 267.9 12.1 264 13.3
2009-05-20 05:16:12 51°14.881 2°42.104 267.6 12 264 13.3
2009-05-20 05:16:18 51°14.879 2°42.072 267.6 12 264 13.3
2009-05-20 05:16:23 51°14.878 2°42.046 267.4 12 264 13.4
2009-05-20 05:16:27 51°14.876 2°42.025 268 12 265 13.4
2009-05-20 05:16:32 51°14.875 2°41.999 267.9 12 264 13.7
2009-05-20 05:16:37 51°14.873 2°41.973 267.1 12 263 13.7
2009-05-20 05:16:43 51°14.871 2°41.941 266.7 11.9 264 12.9
2009-05-20 05:16:47 51°14.869 2°41.92 267.2 12 264 13.3
2009-05-20 05:16:51 51°14.868 2°41.899 267.3 11.9 264 13.4
2009-05-20 05:16:57 51°14.866 2°41.868 267.7 11.9 265 13.3
2009-05-20 05:17:03 51°14.864 2°41.836 267.9 12 264 13.2
2009-05-20 05:17:07 51°14.863 2°41.815 267.9 11.9 265 13.3
2009-05-20 05:17:12 51°14.861 2°41.789 268 11.9 264 13.4
2009-05-20 05:17:17 51°14.859 2°41.762 268 12 264 13.5
2009-05-20 05:17:23 51°14.857 2°41.73 267.8 12 264 13.4
2009-05-20 05:17:28 51°14.856 2°41.704 267.5 11.9 264 13.5
2009-05-20 05:17:33 51°14.853 2°41.678 267.2 12 263 13.5
2009-05-20 05:17:38 51°14.851 2°41.652 266.2 12 262 13.5
2009-05-20 05:17:43 51°14.849 2°41.626 265.8 11.9 263 13.4
2009-05-20 05:17:47 51°14.848 2°41.605 266.3 11.9 264 13.6
2009-05-20 05:17:53 51°14.846 2°41.573 266.9 11.9 264 13.1
2009-05-20 05:17:58 51°14.844 2°41.547 267.2 11.9 264 13.3
2009-05-20 05:18:03 51°14.843 2°41.521 267.6 11.9 264 13.4
2009-05-20 05:18:07 51°14.841 2°41.5 267.6 11.9 264 13.3
2009-05-20 05:18:12 51°14.84 2°41.474 267.4 11.9 264 13.2
2009-05-20 05:18:18 51°14.838 2°41.442 267.5 12 264 13.3
2009-05-20 05:18:23 51°14.836 2°41.416 267.5 12 264 13.4
2009-05-20 05:18:27 51°14.835 2°41.395 267.6 11.9 265 13.4
2009-05-20 05:18:32 51°14.833 2°41.369 268 11.9 265 13.3
2009-05-20 05:18:38 51°14.832 2°41.338 268.2 11.9 265 13.2
2009-05-20 05:18:43 51°14.83 2°41.311 267.9 11.9 265 13.2
2009-05-20 05:18:47 51°14.829 2°41.29 267.9 11.9 265 13.2
2009-05-20 05:18:52 51°14.827 2°41.264 267.9 11.9 264 13.4
2009-05-20 05:18:58 51°14.825 2°41.233 267.8 11.9 265 13.3
2009-05-20 05:19:03 51°14.824 2°41.207 267.8 11.9 264 13.3
2009-05-20 05:19:08 51°14.822 2°41.181 267.9 11.9 265 13.3
2009-05-20 05:19:12 51°14.821 2°41.16 268 11.9 265 13.2
2009-05-20 05:19:18 51°14.819 2°41.129 268 11.8 265 13
2009-05-20 05:19:23 51°14.817 2°41.103 267.7 11.9 264 12.9
2009-05-20 05:19:28 51°14.816 2°41.077 267.6 11.9 264 12.7
2009-05-20 05:19:32 51°14.815 2°41.056 267.8 11.8 265 12.6
2009-05-20 05:19:38 51°14.813 2°41.025 268 11.8 265 12.7
2009-05-20 05:19:43 51°14.811 2°40.999 268 11.8 263 12.9
2009-05-20 05:19:47 51°14.81 2°40.978 267.6 11.8 263 13.1
2009-05-20 05:19:53 51°14.805 2°40.947 264.3 11.8 257 13.1
2009-05-20 05:19:58 51°14.802 2°40.922 262.2 11.8 259 13
2009-05-20 05:20:03 51°14.798 2°40.896 260.5 11.9 254 13
2009-05-20 05:20:07 51°14.794 2°40.876 258.5 11.9 256 12.7
2009-05-20 05:20:13 51°14.789 2°40.846 257.7 11.9 253 12.9
2009-05-20 05:20:18 51°14.784 2°40.821 256.3 11.9 253 12.7
2009-05-20 05:20:23 51°14.779 2°40.796 255.7 11.9 252 12.7
2009-05-20 05:20:27 51°14.774 2°40.776 254.5 11.9 251 12.5
2009-05-20 05:20:32 51°14.769 2°40.751 254.1 11.9 251 12.7
2009-05-20 05:20:38 51°14.762 2°40.722 253.4 11.9 250 12.5
2009-05-20 05:20:43 51°14.757 2°40.697 253 12 251 12.6
2009-05-20 05:20:47 51°14.752 2°40.677 252.8 12 249 12.6
2009-05-20 05:20:52 51°14.747 2°40.652 252.7 11.9 250 12.6
2009-05-20 05:20:58 51°14.739 2°40.623 252.4 11.9 249 12.6
2009-05-20 05:21:03 51°14.734 2°40.598 251.9 11.9 250 12.7
2009-05-20 05:21:07 51°14.729 2°40.578 252.7 11.9 250 12.4
2009-05-20 05:21:11 51°14.725 2°40.558 252.9 11.9 250 12.6
2009-05-20 05:21:17 51°14.718 2°40.529 252.8 12 249 12.8
2009-05-20 05:21:23 51°14.711 2°40.499 252.4 11.9 251 12.5
2009-05-20 05:21:27 51°14.706 2°40.479 253.1 11.9 250 12.8
2009-05-20 05:21:32 51°14.701 2°40.455 253.4 11.9 250 12.5
2009-05-20 05:21:37 51°14.695 2°40.43 253.3 11.9 250 12.8
2009-05-20 05:21:43 51°14.689 2°40.4 253.1 11.9 250 12.5
2009-05-20 05:21:47 51°14.684 2°40.38 252.8 11.9 250 12.8
2009-05-20 05:21:52 51°14.679 2°40.355 253.4 11.9 251 12.5
2009-05-20 05:21:58 51°14.672 2°40.325 253.5 11.9 251 12.6
2009-05-20 05:22:03 51°14.667 2°40.301 253.4 11.9 250 12.7
2009-05-20 05:22:07 51°14.662 2°40.281 253.5 11.9 251 12.9
2009-05-20 05:22:13 51°14.656 2°40.251 253.6 11.9 251 12.7
2009-05-20 05:22:17 51°14.652 2°40.231 253.9 11.9 251 13.2
2009-05-20 05:22:23 51°14.645 2°40.201 253.9 11.9 251 13
2009-05-20 05:22:27 51°14.641 2°40.181 253.7 11.9 251 13.1
2009-05-20 05:22:33 51°14.634 2°40.152 253.5 11.9 251 13
2009-05-20 05:22:38 51°14.629 2°40.127 253.7 11.9 251 13
2009-05-20 05:22:43 51°14.624 2°40.102 254.1 11.9 251 13.3
2009-05-20 05:22:47 51°14.619 2°40.082 254.1 11.9 250 13.1
2009-05-20 05:22:51 51°14.614 2°40.062 253 11.8 249 13.2
2009-05-20 05:22:58 51°14.606 2°40.028 252.4 11.9 250 13.2
2009-05-20 05:23:03 51°14.6 2°40.004 252.1 11.9 249 13
2009-05-20 05:23:07 51°14.596 2°39.984 252.4 11.9 250 13.3
2009-05-20 05:23:12 51°14.59 2°39.959 252.9 12 250 13.2
2009-05-20 05:23:17 51°14.584 2°39.935 252.6 11.9 249 13.3
2009-05-20 05:23:23 51°14.577 2°39.905 252.3 11.9 250 13.3
2009-05-20 05:23:27 51°14.573 2°39.885 253 11.9 251 13.1
2009-05-20 05:23:33 51°14.567 2°39.855 253.4 11.9 251 13.3
2009-05-20 05:23:37 51°14.562 2°39.835 253.9 11.9 251 13.5
2009-05-20 05:23:43 51°14.556 2°39.805 254.1 11.9 251 13.2
2009-05-20 05:23:47 51°14.552 2°39.785 254.1 12 251 13.4
2009-05-20 05:23:53 51°14.545 2°39.755 254.1 12 251 13.6
2009-05-20 05:23:57 51°14.541 2°39.735 253.9 11.9 251 13.5
2009-05-20 05:24:03 51°14.534 2°39.705 254.1 11.9 251 13.4
2009-05-20 05:24:07 51°14.53 2°39.686 254.2 11.9 252 13.6
2009-05-20 05:24:13 51°14.523 2°39.656 253.5 11.9 249 13.5
2009-05-20 05:24:17 51°14.519 2°39.636 252.8 11.9 251 13.5
2009-05-20 05:24:23 51°14.512 2°39.606 253.1 11.9 250 13.9
2009-05-20 05:24:28 51°14.507 2°39.582 253.5 11.9 251 13.7
2009-05-20 05:24:33 51°14.501 2°39.557 252.8 11.9 248 14
2009-05-20 05:24:38 51°14.495 2°39.532 252.4 12 251 14.4
2009-05-20 05:24:43 51°14.489 2°39.507 253 11.9 250 14.4
2009-05-20 05:24:47 51°14.485 2°39.487 253.1 11.9 251 14.7
2009-05-20 05:24:53 51°14.478 2°39.457 253.4 11.9 250 14.1
2009-05-20 05:24:58 51°14.473 2°39.432 253.4 12 250 13.4
2009-05-20 05:25:03 51°14.467 2°39.407 253.2 11.9 250 13.4
2009-05-20 05:25:07 51°14.463 2°39.387 253.4 11.9 250 13.7
2009-05-20 05:25:12 51°14.457 2°39.363 253.3 12 250 13.1
2009-05-20 05:25:18 51°14.45 2°39.333 253 12 250 13.9
2009-05-20 05:25:23 51°14.444 2°39.308 252.9 12 250 13.4
2009-05-20 05:25:27 51°14.44 2°39.288 253.1 12 250 14.4
2009-05-20 05:25:32 51°14.434 2°39.263 253.3 12 250 14.5
2009-05-20 05:25:38 51°14.428 2°39.233 253.4 12 251 14.5
2009-05-20 05:25:43 51°14.422 2°39.208 253.5 12 251 14.2
2009-05-20 05:25:48 51°14.417 2°39.183 253.7 12 251 14.4
2009-05-20 05:25:52 51°14.412 2°39.163 253.6 12 250 15.1
2009-05-20 05:25:58 51°14.406 2°39.133 253.3 12 250 15
2009-05-20 05:26:03 51°14.4 2°39.108 253.5 12 251 15.2
2009-05-20 05:26:08 51°14.394 2°39.082 253.5 12.1 250 15.3